createdAt,value
2023-05-03T00:00:43.470Z,22.01
2023-05-03T00:03:10.980Z,21.98
2023-05-03T00:05:38.410Z,21.96
2023-05-03T00:08:07.458Z,21.98
2023-05-03T00:10:34.592Z,21.93
2023-05-03T00:13:01.630Z,21.95
2023-05-03T00:15:28.808Z,21.96
2023-05-03T00:17:56.006Z,21.96
2023-05-03T00:20:23.350Z,21.86
2023-05-03T00:22:50.595Z,21.84
2023-05-03T00:25:17.924Z,21.83
2023-05-03T00:27:45.117Z,21.82
2023-05-03T00:30:13.150Z,21.88
2023-05-03T00:32:40.146Z,21.69
2023-05-03T00:35:07.981Z,21.74
2023-05-03T00:37:35.062Z,21.65
2023-05-03T00:40:02.484Z,21.74
2023-05-03T00:42:29.776Z,21.68
2023-05-03T00:44:56.837Z,21.61
2023-05-03T00:47:24.198Z,21.61
2023-05-03T00:49:51.953Z,21.71
2023-05-03T00:52:19.056Z,21.63
2023-05-03T00:54:46.362Z,21.65
2023-05-03T00:57:13.914Z,21.71
2023-05-03T00:59:47.777Z,21.48
2023-05-03T01:02:14.985Z,21.41
2023-05-03T01:04:43.597Z,21.37
2023-05-03T01:07:48.496Z,21.37
2023-05-03T01:10:45.192Z,21.29
2023-05-03T01:13:47.582Z,21.23
2023-05-03T01:16:23.794Z,21.11
2023-05-03T01:18:53.582Z,21.15
2023-05-03T01:21:22.983Z,20.99
2023-05-03T01:24:14.345Z,21.01
2023-05-03T01:26:45.079Z,21.02
2023-05-03T01:29:14.949Z,21.04
2023-05-03T01:32:01.927Z,21.06
2023-05-03T01:34:39.172Z,20.97
2023-05-03T01:37:10.533Z,20.75
2023-05-03T01:39:44.864Z,20.61
2023-05-03T01:42:17.262Z,20.70
2023-05-03T01:44:46.063Z,20.92
2023-05-03T01:47:18.206Z,20.68
2023-05-03T01:49:47.623Z,20.72
2023-05-03T01:52:17.673Z,20.84
2023-05-03T01:54:45.197Z,20.85
2023-05-03T01:57:12.884Z,20.82
2023-05-03T01:59:42.000Z,20.92
2023-05-03T02:02:09.748Z,20.79
2023-05-03T02:04:37.108Z,20.75
2023-05-03T02:07:04.216Z,20.92
2023-05-03T02:09:31.152Z,20.74
2023-05-03T02:11:58.170Z,20.70
2023-05-03T02:14:25.489Z,20.75
2023-05-03T02:16:55.911Z,20.65
2023-05-03T02:19:23.219Z,20.63
2023-05-03T02:21:50.268Z,20.49
2023-05-03T02:24:17.801Z,20.73
2023-05-03T02:26:45.134Z,20.51
2023-05-03T02:29:12.299Z,20.56
2023-05-03T02:31:39.284Z,20.60
2023-05-03T02:34:07.345Z,20.73
2023-05-03T02:36:34.434Z,20.63
2023-05-03T02:39:02.208Z,20.65
2023-05-03T02:41:29.306Z,20.69
2023-05-03T02:43:57.264Z,20.78
2023-05-03T02:46:26.931Z,20.83
2023-05-03T02:48:54.414Z,20.78
2023-05-03T02:51:21.392Z,20.67
2023-05-03T02:53:49.021Z,20.72
2023-05-03T02:56:16.276Z,20.77
2023-05-03T02:58:43.426Z,20.78
2023-05-03T03:01:12.100Z,20.86
2023-05-03T03:03:39.668Z,20.66
2023-05-03T03:06:07.398Z,20.62
2023-05-03T03:08:38.854Z,20.78
2023-05-03T03:11:08.243Z,20.72
2023-05-03T03:13:40.012Z,20.68
2023-05-03T03:16:08.635Z,20.79
2023-05-03T03:18:36.800Z,20.92
2023-05-03T03:21:04.294Z,20.87
2023-05-03T03:23:32.945Z,20.75
2023-05-03T03:26:00.213Z,20.79
2023-05-03T03:28:27.768Z,20.94
2023-05-03T03:30:58.460Z,20.91
2023-05-03T03:33:29.051Z,20.89
2023-05-03T03:36:03.040Z,20.60
2023-05-03T03:38:36.456Z,20.63
2023-05-03T03:41:08.624Z,20.69
2023-05-03T03:43:36.638Z,20.66
2023-05-03T03:46:07.219Z,20.56
2023-05-03T03:48:34.898Z,20.49
2023-05-03T03:51:02.117Z,20.50
2023-05-03T03:53:36.515Z,20.39
2023-05-03T03:56:04.176Z,20.55
2023-05-03T03:58:32.532Z,20.40
2023-05-03T04:01:01.606Z,20.46
2023-05-03T04:03:30.311Z,20.49
2023-05-03T04:05:58.173Z,20.36
2023-05-03T04:08:26.535Z,20.24
2023-05-03T04:10:53.772Z,20.24
2023-05-03T04:13:21.564Z,20.20
2023-05-03T04:15:56.302Z,20.23
2023-05-03T04:18:24.155Z,20.16
2023-05-03T04:20:53.978Z,20.23
2023-05-03T04:23:22.156Z,20.15
2023-05-03T04:25:49.670Z,20.15
2023-05-03T04:28:19.513Z,20.04
2023-05-03T04:30:49.628Z,20.10
2023-05-03T04:33:22.587Z,20.13
2023-05-03T04:35:52.864Z,19.94
2023-05-03T04:38:20.689Z,20.01
2023-05-03T04:40:47.933Z,19.97
2023-05-03T04:43:15.326Z,20.11
2023-05-03T04:45:45.651Z,20.03
2023-05-03T04:48:18.414Z,19.94
2023-05-03T04:50:45.683Z,20.00
2023-05-03T04:53:15.709Z,20.03
2023-05-03T04:55:47.806Z,20.08
2023-05-03T04:58:15.599Z,20.04
2023-05-03T05:00:43.384Z,20.13
2023-05-03T05:03:16.531Z,20.09
2023-05-03T05:05:46.984Z,20.08
2023-05-03T05:08:14.737Z,20.12
2023-05-03T05:10:48.158Z,20.01
2023-05-03T05:13:20.097Z,20.15
2023-05-03T05:15:47.173Z,20.13
2023-05-03T05:18:17.076Z,20.21
2023-05-03T05:20:45.701Z,20.12
2023-05-03T05:23:12.900Z,20.13
2023-05-03T05:25:43.332Z,20.11
2023-05-03T05:28:11.492Z,20.16
2023-05-03T05:30:39.838Z,20.09
2023-05-03T05:33:10.973Z,20.13
2023-05-03T05:35:38.884Z,20.19
2023-05-03T05:38:06.082Z,20.31
2023-05-03T05:40:34.626Z,20.24
2023-05-03T05:43:02.682Z,20.36
2023-05-03T05:45:34.721Z,20.36
2023-05-03T05:48:04.977Z,20.30
2023-05-03T05:50:32.803Z,20.29
2023-05-03T05:53:05.023Z,20.40
2023-05-03T05:55:37.284Z,20.32
2023-05-03T05:58:05.052Z,20.21
2023-05-03T06:00:41.267Z,20.23
2023-05-03T06:03:08.445Z,20.22
2023-05-03T06:05:36.940Z,20.20
2023-05-03T06:08:04.319Z,20.29
2023-05-03T06:10:31.603Z,20.24
2023-05-03T06:12:58.937Z,20.24
2023-05-03T06:15:27.965Z,20.35
2023-05-03T06:17:55.239Z,20.37
2023-05-03T06:20:24.681Z,20.41
2023-05-03T06:22:53.225Z,20.47
2023-05-03T06:25:21.027Z,20.53
2023-05-03T06:27:50.164Z,20.57
2023-05-03T06:30:20.758Z,20.55
2023-05-03T06:32:49.836Z,20.62
2023-05-03T06:35:20.191Z,20.62
2023-05-03T06:37:47.892Z,20.71
2023-05-03T06:40:16.243Z,20.77
2023-05-03T06:42:43.473Z,20.82
2023-05-03T06:45:16.040Z,20.81
2023-05-03T06:47:43.395Z,20.82
2023-05-03T06:50:11.436Z,20.92
2023-05-03T06:52:38.657Z,20.92
2023-05-03T06:55:06.320Z,20.97
2023-05-03T06:57:33.527Z,21.02
2023-05-03T07:00:00.779Z,21.07
2023-05-03T07:02:28.468Z,21.15
2023-05-03T07:04:55.930Z,21.24
2023-05-03T07:07:23.191Z,21.27
2023-05-03T07:09:50.459Z,21.31
2023-05-03T07:12:17.765Z,21.40
2023-05-03T07:14:48.151Z,21.41
2023-05-03T07:17:17.568Z,21.46
2023-05-03T07:19:44.608Z,21.51
2023-05-03T07:22:12.327Z,21.51
2023-05-03T07:24:39.505Z,21.29
2023-05-03T07:27:06.906Z,21.31
2023-05-03T07:29:34.111Z,21.27
2023-05-03T07:32:01.490Z,21.61
2023-05-03T07:34:28.490Z,21.59
2023-05-03T07:36:56.235Z,21.73
2023-05-03T07:39:23.317Z,21.65
2023-05-03T07:41:52.971Z,21.75
2023-05-03T07:44:20.161Z,21.83
2023-05-03T07:46:47.316Z,22.08
2023-05-03T07:49:14.502Z,22.10
2023-05-03T07:51:42.037Z,22.27
2023-05-03T07:54:09.255Z,22.38
2023-05-03T07:56:36.655Z,22.51
2023-05-03T07:59:09.857Z,22.58
2023-05-03T08:01:38.336Z,22.48
2023-05-03T08:04:06.068Z,22.63
2023-05-03T08:06:35.755Z,22.60
2023-05-03T08:09:04.676Z,22.65
2023-05-03T08:11:32.257Z,23.00
2023-05-03T08:13:59.589Z,23.14
2023-05-03T08:16:27.158Z,23.49
2023-05-03T08:18:55.424Z,23.68
2023-05-03T08:21:25.308Z,23.63
2023-05-03T08:23:52.664Z,23.73
2023-05-03T08:26:22.326Z,24.14
2023-05-03T08:28:49.773Z,24.39
2023-05-03T08:31:17.552Z,24.58
2023-05-03T08:33:44.771Z,24.86
2023-05-03T08:36:12.026Z,24.99
2023-05-03T08:38:41.629Z,25.20
2023-05-03T08:41:30.510Z,25.22
2023-05-03T08:44:01.247Z,25.51
2023-05-03T08:46:29.846Z,25.55
2023-05-03T08:48:57.495Z,25.74
2023-05-03T08:51:25.309Z,25.95
2023-05-03T08:53:53.182Z,25.91
2023-05-03T08:56:33.939Z,25.77
2023-05-03T08:59:07.990Z,25.52
2023-05-03T09:01:40.357Z,25.41
2023-05-03T09:04:08.892Z,25.40
2023-05-03T09:06:37.006Z,25.38
2023-05-03T09:09:09.895Z,25.10
2023-05-03T09:11:46.452Z,25.69
2023-05-03T09:14:18.840Z,25.76
2023-05-03T09:16:47.508Z,25.75
2023-05-03T09:19:16.349Z,26.21
2023-05-03T09:21:45.624Z,26.24
2023-05-03T09:24:14.117Z,25.63
2023-05-03T09:26:42.593Z,25.82
2023-05-03T09:29:10.249Z,25.95
2023-05-03T09:31:38.287Z,26.25
2023-05-03T09:34:24.847Z,26.01
2023-05-03T09:36:52.086Z,26.31
2023-05-03T09:39:20.057Z,26.31
2023-05-03T09:41:47.834Z,26.78
2023-05-03T09:44:15.104Z,26.77
2023-05-03T09:47:03.484Z,26.88
2023-05-03T09:49:33.979Z,27.16
2023-05-03T09:52:01.768Z,26.59
2023-05-03T09:54:31.617Z,26.73
2023-05-03T09:57:00.826Z,26.15
2023-05-03T09:59:31.558Z,26.53
2023-05-03T10:02:02.717Z,26.93
2023-05-03T10:04:47.234Z,26.94
2023-05-03T10:07:18.654Z,26.35
2023-05-03T10:09:48.268Z,26.50
2023-05-03T10:12:19.222Z,26.45
2023-05-03T10:14:48.904Z,26.42
2023-05-03T10:17:47.116Z,26.02
2023-05-03T10:20:28.673Z,26.18
2023-05-03T10:23:05.237Z,26.22
2023-05-03T10:25:33.461Z,26.66
2023-05-03T10:28:10.300Z,26.55
2023-05-03T10:30:43.560Z,26.15
2023-05-03T10:33:13.735Z,26.34
2023-05-03T10:35:43.413Z,26.49
2023-05-03T10:38:20.899Z,26.44
2023-05-03T10:40:51.361Z,27.11
2023-05-03T10:43:33.509Z,27.10
2023-05-03T10:46:09.100Z,27.47
2023-05-03T10:48:36.322Z,27.93
2023-05-03T10:51:37.042Z,27.70
2023-05-03T10:54:04.580Z,27.76
2023-05-03T10:56:31.873Z,27.78
2023-05-03T10:58:59.298Z,27.33
2023-05-03T11:01:28.182Z,27.50
2023-05-03T11:04:34.242Z,27.30
2023-05-03T11:07:01.948Z,26.87
2023-05-03T11:09:34.228Z,26.92
2023-05-03T11:12:05.995Z,26.80
2023-05-03T11:14:33.262Z,26.47
2023-05-03T11:17:01.463Z,26.51
2023-05-03T11:19:29.385Z,26.95
2023-05-03T11:21:57.382Z,26.68
2023-05-03T11:24:24.557Z,26.92
2023-05-03T11:26:51.711Z,26.92
2023-05-03T11:29:19.749Z,26.93
2023-05-03T11:31:47.283Z,26.89
2023-05-03T11:34:23.449Z,26.75
2023-05-03T11:36:51.342Z,27.01
2023-05-03T11:39:21.726Z,27.21
2023-05-03T11:42:05.688Z,27.08
2023-05-03T11:44:33.355Z,26.78
2023-05-03T11:47:00.848Z,27.00
2023-05-03T11:49:28.560Z,27.22
2023-05-03T11:51:56.614Z,27.64
2023-05-03T11:54:26.908Z,27.19
2023-05-03T11:56:58.132Z,27.43
2023-05-03T11:59:37.328Z,27.53
2023-05-03T12:02:05.909Z,27.49
2023-05-03T12:04:33.807Z,27.95
2023-05-03T12:07:03.236Z,27.73
2023-05-03T12:09:33.770Z,28.09
2023-05-03T12:12:06.650Z,28.07
2023-05-03T12:14:55.859Z,27.83
2023-05-03T12:17:39.551Z,28.06
2023-05-03T12:22:58.971Z,28.28
2023-05-03T12:25:30.846Z,28.14
2023-05-03T12:30:34.175Z,28.06
2023-05-03T12:33:04.291Z,28.25
2023-05-03T12:35:34.085Z,27.57
2023-05-03T12:38:04.703Z,27.31
2023-05-03T12:40:34.562Z,27.55
2023-05-03T12:43:02.424Z,26.95
2023-05-03T12:45:34.444Z,27.65
2023-05-03T12:48:03.097Z,27.18
2023-05-03T12:50:31.909Z,26.59
2023-05-03T12:53:02.304Z,26.70
2023-05-03T12:55:35.658Z,26.71
2023-05-03T12:58:36.752Z,26.78
2023-05-03T13:03:32.760Z,26.45
2023-05-03T13:06:12.600Z,26.09
2023-05-03T13:08:48.882Z,26.04
2023-05-03T13:11:19.599Z,26.03
2023-05-03T13:13:47.270Z,25.78
2023-05-03T13:16:14.767Z,25.41
2023-05-03T13:18:43.233Z,25.61
2023-05-03T13:21:11.372Z,25.53
2023-05-03T13:23:38.757Z,25.44
2023-05-03T13:26:07.375Z,25.93
2023-05-03T13:28:34.683Z,25.69
2023-05-03T13:31:02.175Z,25.74
2023-05-03T13:33:29.834Z,26.24
2023-05-03T13:35:57.663Z,25.90
2023-05-03T13:38:24.877Z,25.64
2023-05-03T13:40:52.840Z,25.49
2023-05-03T13:43:28.116Z,25.15
2023-05-03T13:46:03.604Z,25.35
2023-05-03T13:48:33.419Z,25.62
2023-05-03T13:51:03.275Z,25.55
2023-05-03T13:53:30.481Z,25.23
2023-05-03T13:55:57.974Z,25.40
2023-05-03T13:58:25.110Z,25.38
2023-05-03T14:00:52.306Z,25.98
2023-05-03T14:03:19.737Z,25.49
2023-05-03T14:05:47.708Z,25.53
2023-05-03T14:08:16.881Z,25.30
2023-05-03T14:10:44.852Z,25.26
2023-05-03T14:13:14.691Z,25.27
2023-05-03T14:15:44.006Z,25.06
2023-05-03T14:18:11.977Z,25.24
2023-05-03T14:20:39.256Z,24.85
2023-05-03T14:23:09.068Z,24.91
2023-05-03T14:25:38.789Z,24.57
2023-05-03T14:28:06.199Z,24.46
2023-05-03T14:30:33.842Z,24.82
2023-05-03T14:33:01.276Z,25.13
2023-05-03T14:35:28.628Z,25.21
2023-05-03T14:37:58.652Z,24.74
2023-05-03T14:40:25.874Z,24.28
2023-05-03T14:42:53.341Z,24.39
2023-05-03T14:45:20.412Z,24.36
2023-05-03T14:47:47.623Z,24.70
2023-05-03T14:50:15.435Z,25.05
2023-05-03T14:52:42.479Z,24.93
2023-05-03T14:55:10.954Z,24.74
2023-05-03T14:57:41.726Z,24.56
2023-05-03T15:00:14.408Z,24.70
2023-05-03T15:02:42.542Z,24.62
2023-05-03T15:05:11.322Z,24.67
2023-05-03T15:07:38.749Z,24.90
2023-05-03T15:10:08.179Z,24.51
2023-05-03T15:12:36.756Z,25.02
2023-05-03T15:15:05.228Z,25.26
2023-05-03T15:17:34.448Z,25.53
2023-05-03T15:20:02.161Z,25.12
2023-05-03T15:22:29.902Z,24.90
2023-05-03T15:24:56.994Z,24.95
2023-05-03T15:27:24.618Z,25.14
2023-05-03T15:29:53.248Z,25.32
2023-05-03T15:32:20.657Z,25.33
2023-05-03T15:34:47.894Z,24.92
2023-05-03T15:37:16.166Z,24.88
2023-05-03T15:39:45.985Z,24.92
2023-05-03T15:42:15.875Z,25.01
2023-05-03T15:44:45.408Z,24.87
2023-05-03T15:47:12.622Z,25.01
2023-05-03T15:49:42.186Z,25.13
2023-05-03T15:52:09.433Z,24.88
2023-05-03T15:54:36.670Z,24.92
2023-05-03T15:57:05.025Z,25.10
2023-05-03T15:59:31.980Z,24.68
2023-05-03T16:02:08.224Z,24.86
2023-05-03T16:04:37.605Z,24.79
2023-05-03T16:07:04.763Z,24.74
2023-05-03T16:09:31.907Z,24.68
2023-05-03T16:11:59.416Z,24.58
2023-05-03T16:14:26.609Z,24.85
2023-05-03T16:16:54.614Z,24.35
2023-05-03T16:19:22.685Z,24.55
2023-05-03T16:21:58.076Z,24.57
2023-05-03T16:24:36.843Z,24.79
2023-05-03T16:27:31.548Z,24.49
2023-05-03T16:30:16.329Z,24.62
2023-05-03T16:32:55.466Z,24.69
2023-05-03T16:35:24.173Z,24.61
2023-05-03T16:37:52.250Z,25.02
2023-05-03T16:40:22.638Z,25.00
2023-05-03T16:42:52.855Z,24.59
2023-05-03T16:45:23.821Z,24.10
2023-05-03T16:47:54.026Z,24.45
2023-05-03T16:50:23.889Z,24.22
2023-05-03T16:52:51.972Z,24.10
2023-05-03T16:55:25.009Z,24.12
2023-05-03T16:57:54.926Z,23.81
2023-05-03T17:00:25.217Z,23.99
2023-05-03T17:02:53.035Z,24.00
2023-05-03T17:05:20.540Z,23.96
2023-05-03T17:07:48.044Z,24.06
2023-05-03T17:10:15.898Z,24.05
2023-05-03T17:12:43.088Z,24.22
2023-05-03T17:15:10.992Z,24.19
2023-05-03T17:17:38.406Z,24.17
2023-05-03T17:20:11.154Z,24.23
2023-05-03T17:22:38.303Z,24.41
2023-05-03T17:25:06.809Z,24.19
2023-05-03T17:27:33.956Z,24.12
2023-05-03T17:30:01.108Z,23.97
2023-05-03T17:32:28.543Z,24.24
2023-05-03T17:34:59.645Z,24.03
2023-05-03T17:37:27.256Z,23.73
2023-05-03T17:39:56.976Z,23.99
2023-05-03T17:42:24.211Z,23.80
2023-05-03T17:44:52.257Z,24.06
2023-05-03T17:47:19.451Z,23.94
2023-05-03T17:49:46.735Z,23.77
2023-05-03T17:52:13.946Z,23.81
2023-05-03T17:54:41.823Z,23.88
2023-05-03T17:57:10.166Z,23.95
2023-05-03T17:59:37.429Z,23.73
2023-05-03T18:02:04.953Z,23.72
2023-05-03T18:04:32.677Z,23.70
2023-05-03T18:06:59.980Z,23.71
2023-05-03T18:09:30.889Z,23.67
2023-05-03T18:12:00.471Z,23.71
2023-05-03T18:14:27.692Z,23.74
2023-05-03T18:16:55.391Z,23.43
2023-05-03T18:19:24.087Z,23.58
2023-05-03T18:21:52.631Z,23.14
2023-05-03T18:24:19.801Z,23.45
2023-05-03T18:26:47.391Z,23.31
2023-05-03T18:29:14.989Z,23.32
2023-05-03T18:31:45.199Z,23.27
2023-05-03T18:34:16.893Z,23.09
2023-05-03T18:36:44.208Z,22.83
2023-05-03T18:39:11.706Z,22.71
2023-05-03T18:41:39.130Z,23.12
2023-05-03T18:44:07.916Z,22.69
2023-05-03T18:46:37.499Z,22.97
2023-05-03T18:49:05.246Z,22.93
2023-05-03T18:51:32.731Z,23.04
2023-05-03T18:53:59.981Z,23.03
2023-05-03T18:56:30.616Z,22.86
2023-05-03T18:58:57.919Z,22.53
2023-05-03T19:01:26.808Z,22.52
2023-05-03T19:03:55.252Z,22.60
2023-05-03T19:06:22.515Z,22.66
2023-05-03T19:08:50.049Z,22.79
2023-05-03T19:11:17.696Z,22.45
2023-05-03T19:13:45.681Z,22.78
2023-05-03T19:16:13.786Z,22.60
2023-05-03T19:18:42.230Z,22.47
2023-05-03T19:21:19.576Z,22.65
2023-05-03T19:23:47.035Z,22.69
2023-05-03T19:26:16.885Z,22.41
2023-05-03T19:28:44.298Z,22.51
2023-05-03T19:31:11.960Z,22.61
2023-05-03T19:33:39.252Z,22.67
2023-05-03T19:36:07.093Z,22.83
2023-05-03T19:38:37.654Z,22.51
2023-05-03T19:41:14.209Z,22.77
2023-05-03T19:43:42.482Z,22.51
2023-05-03T19:46:11.950Z,22.67
2023-05-03T19:48:39.129Z,22.67
2023-05-03T19:51:13.985Z,22.76
2023-05-03T19:53:42.008Z,22.66
2023-05-03T19:56:10.266Z,22.60
2023-05-03T19:58:40.376Z,22.37
2023-05-03T20:01:07.765Z,22.51
2023-05-03T20:03:35.599Z,22.64
2023-05-03T20:06:03.728Z,22.44
2023-05-03T20:08:32.645Z,22.57
2023-05-03T20:11:00.218Z,22.41
2023-05-03T20:13:28.610Z,22.33
2023-05-03T20:15:56.627Z,22.47
2023-05-03T20:18:23.954Z,22.40
2023-05-03T20:20:51.243Z,22.48
2023-05-03T20:25:49.029Z,22.49
2023-05-03T20:28:16.385Z,22.33
2023-05-03T20:30:43.648Z,22.47
2023-05-03T20:33:12.700Z,22.26
2023-05-03T20:35:40.480Z,22.32
2023-05-03T20:38:07.887Z,22.23
2023-05-03T20:40:35.945Z,22.28
2023-05-03T20:43:03.203Z,22.43
2023-05-03T20:45:30.504Z,22.56
2023-05-03T20:47:57.731Z,22.58
2023-05-03T20:50:24.843Z,22.58
2023-05-03T20:52:52.121Z,22.60
2023-05-03T20:55:19.829Z,22.72
2023-05-03T20:57:47.100Z,22.70
2023-05-03T21:00:17.782Z,22.76
2023-05-03T21:02:45.185Z,22.76
2023-05-03T21:05:12.851Z,22.55
2023-05-03T21:07:40.182Z,22.65
2023-05-03T21:10:08.085Z,22.52
2023-05-03T21:12:35.323Z,22.51
2023-05-03T21:15:02.469Z,22.41
2023-05-03T21:17:29.738Z,22.41
2023-05-03T21:19:56.992Z,22.48
2023-05-03T21:22:24.136Z,22.58
2023-05-03T21:24:51.343Z,22.63
2023-05-03T21:27:19.577Z,22.55
2023-05-03T21:29:46.700Z,22.54
2023-05-03T21:32:13.934Z,22.70
2023-05-03T21:34:40.999Z,22.74
2023-05-03T21:37:08.500Z,22.53
2023-05-03T21:39:36.871Z,22.43
2023-05-03T21:42:04.374Z,22.13
2023-05-03T21:44:31.727Z,22.25
2023-05-03T21:46:59.041Z,22.33
2023-05-03T21:49:26.273Z,22.33
2023-05-03T21:51:53.940Z,22.32
2023-05-03T21:54:21.033Z,22.48
2023-05-03T21:56:48.351Z,22.37
2023-05-03T21:59:15.767Z,22.33
2023-05-03T22:01:42.966Z,22.54
2023-05-03T22:04:10.390Z,22.55
2023-05-03T22:06:38.252Z,22.55
2023-05-03T22:09:05.532Z,22.23
2023-05-03T22:11:32.798Z,21.95
2023-05-03T22:14:07.605Z,22.33
2023-05-03T22:16:37.936Z,22.21
2023-05-03T22:19:05.581Z,22.33
2023-05-03T22:21:32.894Z,22.30
2023-05-03T22:24:03.105Z,22.02
2023-05-03T22:26:30.482Z,22.14
2023-05-03T22:28:57.675Z,22.10
2023-05-03T22:31:26.227Z,22.10
2023-05-03T22:33:53.495Z,22.13
2023-05-03T22:36:20.869Z,22.31
2023-05-03T22:38:48.059Z,21.94
2023-05-03T22:41:15.770Z,21.95
2023-05-03T22:43:43.184Z,22.09
2023-05-03T22:46:10.479Z,22.23
2023-05-03T22:48:37.713Z,22.29
2023-05-03T22:51:05.347Z,22.40
2023-05-03T22:53:33.135Z,22.02
2023-05-03T22:56:04.373Z,22.18
2023-05-03T22:58:31.917Z,22.27
2023-05-03T23:00:59.127Z,22.03
2023-05-03T23:03:27.705Z,22.27
2023-05-03T23:05:55.331Z,22.18
2023-05-03T23:08:22.583Z,21.82
2023-05-03T23:10:50.267Z,22.01
2023-05-03T23:13:17.857Z,21.82
2023-05-03T23:15:45.450Z,22.04
2023-05-03T23:18:12.853Z,22.07
2023-05-03T23:20:40.023Z,22.08
2023-05-03T23:23:07.302Z,22.14
2023-05-03T23:25:36.903Z,22.00
2023-05-03T23:28:04.286Z,21.94
2023-05-03T23:30:31.997Z,22.02
2023-05-03T23:32:59.714Z,21.97
2023-05-03T23:35:27.477Z,22.02
2023-05-03T23:37:54.936Z,22.04
2023-05-03T23:40:22.081Z,22.09
2023-05-03T23:42:50.043Z,22.24
2023-05-03T23:45:17.508Z,22.15
2023-05-03T23:47:44.740Z,22.02
2023-05-03T23:50:14.619Z,22.02
2023-05-03T23:52:42.378Z,22.25
2023-05-03T23:55:10.503Z,22.11
2023-05-03T23:57:38.116Z,22.19
